createdAt,value
2022-12-18T00:00:32.895Z,62.75
2022-12-18T00:03:21.831Z,62.27
2022-12-18T00:05:54.401Z,60.93
2022-12-18T00:08:23.087Z,60.69
2022-12-18T00:10:52.177Z,61.03
2022-12-18T00:13:21.675Z,60.79
2022-12-18T00:15:50.359Z,60.12
2022-12-18T00:18:20.648Z,59.90
2022-12-18T00:20:49.379Z,59.96
2022-12-18T00:23:17.594Z,58.52
2022-12-18T00:25:45.824Z,56.93
2022-12-18T00:28:14.830Z,56.73
2022-12-18T00:30:44.224Z,57.10
2022-12-18T00:33:13.375Z,57.73
2022-12-18T00:35:43.628Z,58.44
2022-12-18T00:38:15.098Z,59.09
2022-12-18T00:44:17.197Z,60.14
2022-12-18T00:46:47.256Z,61.95
2022-12-18T00:49:22.030Z,64.42
2022-12-18T00:51:51.742Z,66.92
2022-12-18T00:54:23.180Z,68.31
2022-12-18T00:56:51.770Z,68.33
2022-12-18T00:59:20.254Z,68.35
2022-12-18T01:01:48.820Z,68.21
2022-12-18T01:04:17.101Z,66.58
2022-12-18T01:06:47.138Z,63.87
2022-12-18T01:09:15.787Z,63.87
2022-12-18T01:11:43.985Z,62.68
2022-12-18T01:14:12.890Z,61.29
2022-12-18T01:16:41.545Z,61.53
2022-12-18T01:19:09.944Z,60.03
2022-12-18T01:21:38.219Z,57.03
2022-12-18T01:24:07.415Z,55.54
2022-12-18T01:26:35.693Z,55.74
2022-12-18T01:29:04.101Z,56.15
2022-12-18T01:31:34.562Z,56.81
2022-12-18T01:34:06.077Z,57.20
2022-12-18T01:36:38.916Z,58.05
2022-12-18T01:39:12.267Z,58.67
2022-12-18T01:42:02.542Z,59.29
2022-12-18T01:44:57.762Z,59.79
2022-12-18T01:47:31.499Z,62.45
2022-12-18T01:50:04.492Z,66.19
2022-12-18T01:52:33.991Z,67.06
2022-12-18T01:55:07.207Z,65.89
2022-12-18T01:57:36.628Z,65.36
2022-12-18T02:00:10.214Z,65.15
2022-12-18T02:02:46.406Z,65.02
2022-12-18T02:05:48.258Z,66.43
2022-12-18T02:08:58.411Z,69.42
2022-12-18T02:11:38.977Z,68.45
2022-12-18T02:14:16.779Z,64.89
2022-12-18T02:17:05.069Z,62.83
2022-12-18T02:19:57.062Z,60.28
2022-12-18T02:22:32.506Z,58.03
2022-12-18T02:25:17.660Z,57.11
2022-12-18T02:27:48.404Z,57.04
2022-12-18T02:30:17.296Z,57.46
2022-12-18T02:32:52.171Z,57.98
2022-12-18T02:35:27.749Z,58.35
2022-12-18T02:37:58.859Z,59.03
2022-12-18T02:40:29.773Z,60.13
2022-12-18T02:43:15.338Z,63.84
2022-12-18T02:45:50.754Z,69.36
2022-12-18T02:48:24.065Z,69.05
2022-12-18T02:51:19.691Z,67.92
2022-12-18T02:53:59.948Z,66.62
2022-12-18T02:56:43.442Z,64.40
2022-12-18T02:59:23.349Z,63.88
2022-12-18T03:02:25.041Z,63.59
2022-12-18T03:05:01.866Z,62.02
2022-12-18T03:07:47.254Z,61.06
2022-12-18T03:10:21.041Z,61.12
2022-12-18T03:13:00.796Z,61.20
2022-12-18T03:15:36.139Z,61.44
2022-12-18T03:18:14.675Z,60.89
2022-12-18T03:20:45.694Z,60.90
2022-12-18T03:23:26.314Z,60.40
2022-12-18T03:26:04.518Z,60.74
2022-12-18T03:28:43.422Z,61.45
2022-12-18T03:31:15.219Z,60.43
2022-12-18T03:34:12.878Z,57.91
2022-12-18T03:36:45.014Z,56.27
2022-12-18T03:39:14.890Z,56.83
2022-12-18T03:41:53.827Z,57.18
2022-12-18T03:44:50.968Z,57.35
2022-12-18T03:47:54.481Z,58.00
2022-12-18T03:51:03.026Z,58.38
2022-12-18T03:54:01.182Z,62.20
2022-12-18T03:56:38.470Z,67.26
2022-12-18T03:59:09.674Z,66.60
2022-12-18T04:01:46.514Z,65.53
2022-12-18T04:04:19.471Z,63.97
2022-12-18T04:06:50.959Z,63.31
2022-12-18T04:09:21.673Z,63.87
2022-12-18T04:11:50.247Z,64.48
2022-12-18T04:14:18.778Z,63.80
2022-12-18T04:16:49.879Z,62.61
2022-12-18T04:19:19.450Z,62.51
2022-12-18T04:24:44.499Z,62.21
2022-12-18T04:27:22.412Z,61.52
2022-12-18T04:29:52.004Z,61.03
2022-12-18T04:32:20.386Z,60.65
2022-12-18T04:34:49.266Z,60.70
2022-12-18T04:37:17.631Z,61.44
2022-12-18T04:39:46.343Z,61.57
2022-12-18T04:42:20.974Z,62.13
2022-12-18T04:44:49.053Z,62.13
2022-12-18T04:47:17.154Z,62.06
2022-12-18T04:49:46.915Z,62.60
2022-12-18T04:52:15.415Z,62.60
2022-12-18T04:54:43.790Z,62.40
2022-12-18T04:57:12.674Z,62.89
2022-12-18T04:59:42.383Z,63.28
2022-12-18T05:02:10.705Z,63.54
2022-12-18T05:04:40.062Z,63.20
2022-12-18T05:07:08.240Z,62.63
2022-12-18T05:09:36.552Z,62.48
2022-12-18T05:12:04.900Z,61.74
2022-12-18T05:14:33.060Z,61.73
2022-12-18T05:17:01.465Z,61.15
2022-12-18T05:19:29.925Z,60.50
2022-12-18T05:21:58.683Z,59.81
2022-12-18T05:24:26.883Z,60.00
2022-12-18T05:26:55.049Z,59.86
2022-12-18T05:29:23.552Z,60.69
2022-12-18T05:31:51.970Z,60.52
2022-12-18T05:34:20.234Z,59.99
2022-12-18T05:36:48.276Z,60.28
2022-12-18T05:39:16.399Z,60.38
2022-12-18T05:41:44.613Z,61.40
2022-12-18T05:44:12.784Z,62.25
2022-12-18T05:46:44.495Z,61.95
2022-12-18T05:49:12.886Z,61.90
2022-12-18T05:51:41.208Z,61.88
2022-12-18T05:54:09.577Z,62.59
2022-12-18T05:56:38.480Z,62.07
2022-12-18T05:59:06.862Z,61.30
2022-12-18T06:01:35.036Z,62.37
2022-12-18T06:04:03.458Z,63.05
2022-12-18T06:06:32.184Z,63.01
2022-12-18T06:09:00.476Z,62.01
2022-12-18T06:11:28.665Z,61.51
2022-12-18T06:13:59.097Z,61.81
2022-12-18T06:16:29.118Z,60.93
2022-12-18T06:18:58.806Z,61.13
2022-12-18T06:21:29.145Z,62.14
2022-12-18T06:23:57.502Z,62.62
2022-12-18T06:26:28.291Z,61.47
2022-12-18T06:28:57.226Z,60.52
2022-12-18T06:31:26.938Z,62.29
2022-12-18T06:33:55.322Z,63.02
2022-12-18T06:36:23.608Z,64.68
2022-12-18T06:38:51.848Z,64.55
2022-12-18T06:41:23.434Z,64.38
2022-12-18T06:43:55.574Z,65.34
2022-12-18T06:46:26.947Z,64.81
2022-12-18T06:48:55.329Z,65.00
2022-12-18T06:51:25.026Z,66.84
2022-12-18T06:53:53.412Z,68.86
2022-12-18T06:56:21.699Z,68.91
2022-12-18T06:58:51.290Z,68.01
2022-12-18T07:01:20.138Z,66.61
2022-12-18T07:03:52.868Z,65.87
2022-12-18T07:06:23.391Z,64.10
2022-12-18T07:08:53.869Z,62.70
2022-12-18T07:11:22.614Z,62.29
2022-12-18T07:13:51.083Z,61.43
2022-12-18T07:16:25.139Z,61.85
2022-12-18T07:18:56.426Z,62.22
2022-12-18T07:21:25.793Z,61.51
2022-12-18T07:23:54.085Z,61.68
2022-12-18T07:26:23.678Z,62.41
2022-12-18T07:28:56.005Z,62.20
2022-12-18T07:31:25.653Z,62.00
2022-12-18T07:33:55.102Z,62.04
2022-12-18T07:36:24.324Z,62.94
2022-12-18T07:38:56.185Z,63.95
2022-12-18T07:41:25.191Z,64.73
2022-12-18T07:43:54.369Z,63.88
2022-12-18T07:46:23.863Z,63.38
2022-12-18T07:48:52.243Z,63.91
2022-12-18T07:51:21.150Z,63.55
2022-12-18T07:53:52.503Z,65.25
2022-12-18T07:56:31.274Z,65.96
2022-12-18T07:59:03.834Z,65.05
2022-12-18T08:01:32.418Z,65.20
2022-12-18T08:04:00.975Z,64.34
2022-12-18T08:06:30.072Z,63.44
2022-12-18T08:08:58.759Z,64.32
2022-12-18T08:11:28.879Z,65.59
2022-12-18T08:13:58.782Z,65.69
2022-12-18T08:16:28.387Z,66.09
2022-12-18T08:18:57.285Z,66.66
2022-12-18T08:21:29.122Z,67.45
2022-12-18T08:24:00.176Z,67.51
2022-12-18T08:26:31.649Z,67.71
2022-12-18T08:29:02.492Z,67.43
2022-12-18T08:31:33.025Z,67.34
2022-12-18T08:34:01.878Z,68.20
2022-12-18T08:36:30.367Z,68.24
2022-12-18T08:38:59.486Z,67.39
2022-12-18T08:41:29.368Z,67.57
2022-12-18T08:44:17.195Z,68.27
2022-12-18T08:46:46.130Z,67.98
2022-12-18T08:49:14.692Z,67.83
2022-12-18T08:51:43.163Z,67.88
2022-12-18T08:54:17.822Z,67.55
2022-12-18T08:56:46.168Z,67.58
2022-12-18T08:59:19.956Z,66.88
2022-12-18T09:01:49.649Z,67.16
2022-12-18T09:04:18.287Z,67.33
2022-12-18T09:06:46.678Z,67.70
2022-12-18T09:09:15.345Z,67.20
2022-12-18T09:11:44.239Z,67.41
2022-12-18T09:14:16.983Z,67.58
2022-12-18T09:16:46.960Z,67.35
2022-12-18T09:19:15.503Z,67.54
2022-12-18T09:21:47.987Z,67.49
2022-12-18T09:24:17.498Z,67.55
2022-12-18T09:26:47.325Z,67.42
2022-12-18T09:29:18.945Z,67.29
2022-12-18T09:31:48.350Z,67.32
2022-12-18T09:34:18.152Z,67.37
2022-12-18T09:36:46.401Z,67.39
2022-12-18T09:39:15.944Z,67.25
2022-12-18T09:41:57.021Z,67.07
2022-12-18T09:44:32.465Z,67.21
2022-12-18T09:47:18.557Z,67.02
2022-12-18T09:49:50.932Z,66.91
2022-12-18T09:52:45.514Z,66.59
2022-12-18T09:55:35.115Z,66.55
2022-12-18T09:58:11.595Z,66.51
2022-12-18T10:00:40.144Z,66.49
2022-12-18T10:03:14.275Z,66.27
2022-12-18T10:05:45.796Z,66.17
2022-12-18T10:08:30.691Z,66.29
2022-12-18T10:11:10.091Z,66.25
2022-12-18T10:14:02.651Z,66.20
2022-12-18T10:16:42.304Z,66.28
2022-12-18T10:19:19.284Z,66.05
2022-12-18T10:22:10.055Z,66.23
2022-12-18T10:24:51.131Z,66.37
2022-12-18T10:27:24.838Z,66.19
2022-12-18T10:29:54.503Z,66.02
2022-12-18T10:32:26.639Z,65.97
2022-12-18T10:35:00.805Z,66.08
2022-12-18T10:37:31.728Z,65.97
2022-12-18T10:40:19.910Z,66.03
2022-12-18T10:43:15.976Z,66.23
2022-12-18T10:46:03.841Z,66.48
2022-12-18T10:48:35.843Z,66.35
2022-12-18T10:51:13.540Z,66.32
2022-12-18T10:53:44.681Z,66.47
2022-12-18T10:56:13.977Z,66.34
2022-12-18T10:58:44.268Z,66.25
2022-12-18T11:01:19.153Z,66.30
2022-12-18T11:04:03.013Z,66.28
2022-12-18T11:06:32.578Z,65.98
2022-12-18T11:09:22.142Z,65.70
2022-12-18T11:11:57.207Z,65.59
2022-12-18T11:14:35.783Z,65.37
2022-12-18T11:19:59.469Z,65.62
2022-12-18T11:22:35.251Z,65.69
2022-12-18T11:25:34.664Z,65.64
2022-12-18T11:28:26.381Z,65.74
2022-12-18T11:31:20.646Z,65.60
2022-12-18T11:34:28.163Z,65.49
2022-12-18T11:36:54.763Z,65.38
2022-12-18T11:39:35.973Z,65.52
2022-12-18T11:42:41.222Z,65.63
2022-12-18T11:45:33.479Z,65.80
2022-12-18T11:48:14.226Z,65.84
2022-12-18T11:50:57.451Z,65.96
2022-12-18T11:53:28.122Z,65.98
2022-12-18T11:56:15.987Z,65.85
2022-12-18T11:58:52.389Z,66.04
2022-12-18T12:01:27.179Z,66.02
2022-12-18T12:04:34.264Z,66.11
2022-12-18T12:07:25.106Z,65.77
2022-12-18T12:10:19.720Z,65.99
2022-12-18T12:13:27.084Z,66.12
2022-12-18T12:16:22.196Z,66.00
2022-12-18T12:19:20.269Z,65.81
2022-12-18T12:22:04.610Z,65.90
2022-12-18T12:25:00.288Z,66.02
2022-12-18T12:27:48.802Z,66.12
2022-12-18T12:30:47.846Z,65.87
2022-12-18T12:33:38.396Z,66.03
2022-12-18T12:36:07.278Z,65.90
2022-12-18T12:38:51.927Z,65.82
2022-12-18T12:41:49.456Z,66.18
2022-12-18T12:44:24.752Z,66.42
2022-12-18T12:46:56.193Z,66.39
2022-12-18T12:49:30.144Z,66.35
2022-12-18T12:52:13.206Z,66.37
2022-12-18T12:54:43.197Z,66.51
2022-12-18T12:57:27.906Z,66.65
2022-12-18T13:00:04.471Z,65.96
2022-12-18T13:02:57.848Z,65.72
2022-12-18T13:05:40.354Z,65.70
2022-12-18T13:08:12.529Z,65.76
2022-12-18T13:10:43.351Z,66.30
2022-12-18T13:13:17.269Z,67.74
2022-12-18T13:16:09.489Z,68.47
2022-12-18T13:18:39.204Z,67.38
2022-12-18T13:21:22.349Z,66.99
2022-12-18T13:23:51.629Z,66.85
2022-12-18T13:26:27.934Z,66.76
2022-12-18T13:28:59.557Z,66.89
2022-12-18T13:31:31.289Z,67.28
2022-12-18T13:34:26.696Z,66.37
2022-12-18T13:37:00.755Z,65.62
2022-12-18T13:39:36.681Z,65.68
2022-12-18T13:42:08.751Z,66.03
2022-12-18T13:44:44.332Z,66.32
2022-12-18T13:47:35.959Z,67.31
2022-12-18T13:50:24.983Z,67.70
2022-12-18T13:52:54.493Z,67.93
2022-12-18T13:55:24.670Z,68.49
2022-12-18T13:58:06.204Z,69.09
2022-12-18T14:00:35.573Z,68.98
2022-12-18T14:03:27.601Z,68.56
2022-12-18T14:06:04.690Z,68.92
2022-12-18T14:08:41.083Z,68.66
2022-12-18T14:11:26.678Z,69.06
2022-12-18T14:13:55.859Z,69.27
2022-12-18T14:16:24.474Z,67.99
2022-12-18T14:19:10.117Z,66.12
2022-12-18T14:21:50.972Z,62.23
2022-12-18T14:24:23.615Z,62.24
2022-12-18T14:26:54.018Z,61.45
2022-12-18T14:29:23.755Z,60.84
2022-12-18T14:32:18.536Z,60.50
2022-12-18T14:34:55.893Z,61.50
2022-12-18T14:37:26.760Z,61.20
2022-12-18T14:40:02.167Z,60.79
2022-12-18T14:42:35.144Z,60.39
2022-12-18T14:45:44.352Z,58.33
2022-12-18T14:48:26.970Z,56.66
2022-12-18T14:51:09.221Z,58.56
2022-12-18T14:53:45.431Z,62.61
2022-12-18T14:56:22.194Z,64.73
2022-12-18T14:58:54.323Z,64.00
2022-12-18T15:01:29.953Z,62.24
2022-12-18T15:04:01.150Z,62.20
2022-12-18T15:06:31.784Z,62.19
2022-12-18T15:09:02.585Z,62.43
2022-12-18T15:11:47.595Z,62.27
2022-12-18T15:14:30.982Z,62.08
2022-12-18T15:17:02.197Z,62.82
2022-12-18T15:19:46.428Z,63.12
2022-12-18T15:22:29.409Z,63.60
2022-12-18T15:25:00.153Z,64.10
2022-12-18T15:27:39.675Z,64.44
2022-12-18T15:30:11.731Z,64.73
2022-12-18T15:32:42.072Z,65.01
2022-12-18T15:35:12.599Z,65.91
2022-12-18T15:37:42.954Z,66.52
2022-12-18T15:40:20.463Z,66.72
2022-12-18T15:43:11.758Z,67.16
2022-12-18T15:45:41.028Z,66.89
2022-12-18T15:48:22.032Z,66.01
2022-12-18T15:50:58.167Z,66.19
2022-12-18T15:53:32.090Z,66.42
2022-12-18T15:56:19.882Z,66.69
2022-12-18T15:58:49.171Z,67.19
2022-12-18T16:01:18.687Z,67.43
2022-12-18T16:03:47.439Z,67.66
2022-12-18T16:06:16.798Z,67.88
2022-12-18T16:08:45.855Z,68.51
2022-12-18T16:11:44.696Z,68.44
2022-12-18T16:14:28.906Z,68.69
2022-12-18T16:17:03.687Z,69.01
2022-12-18T16:19:32.630Z,68.96
2022-12-18T16:22:01.529Z,68.31
2022-12-18T16:24:34.818Z,68.67
2022-12-18T16:27:04.203Z,69.08
2022-12-18T16:29:34.369Z,70.73
2022-12-18T16:32:04.026Z,70.92
2022-12-18T16:34:36.183Z,66.23
2022-12-18T16:37:07.993Z,64.70
2022-12-18T16:39:38.068Z,63.82
2022-12-18T16:42:21.497Z,63.03
2022-12-18T16:44:50.783Z,64.43
2022-12-18T16:47:20.808Z,64.06
2022-12-18T16:49:53.135Z,62.99
2022-12-18T16:52:22.304Z,61.52
2022-12-18T16:54:51.003Z,61.49
2022-12-18T16:57:23.285Z,60.30
2022-12-18T16:59:54.107Z,60.28
2022-12-18T17:02:25.681Z,60.60
2022-12-18T17:04:57.851Z,61.52
2022-12-18T17:07:28.439Z,61.73
2022-12-18T17:09:57.879Z,61.45
2022-12-18T17:12:27.176Z,61.05
2022-12-18T17:14:55.850Z,60.87
2022-12-18T17:17:24.439Z,61.37
2022-12-18T17:19:53.012Z,60.66
2022-12-18T17:22:23.601Z,61.32
2022-12-18T17:24:52.243Z,62.45
2022-12-18T17:27:20.982Z,62.77
2022-12-18T17:29:49.670Z,63.78
2022-12-18T17:32:19.567Z,64.61
2022-12-18T17:34:48.713Z,65.37
2022-12-18T17:37:17.392Z,66.30
2022-12-18T17:39:46.714Z,66.72
2022-12-18T17:42:16.197Z,67.25
2022-12-18T17:44:45.615Z,67.79
2022-12-18T17:47:16.224Z,68.12
2022-12-18T17:49:45.430Z,68.77
2022-12-18T17:52:14.433Z,68.92
2022-12-18T17:54:44.433Z,68.95
2022-12-18T17:57:12.920Z,69.35
2022-12-18T17:59:41.641Z,70.18
2022-12-18T18:02:12.326Z,70.05
2022-12-18T18:04:40.836Z,70.29
2022-12-18T18:07:10.336Z,70.21
2022-12-18T18:09:39.277Z,69.82
2022-12-18T18:12:27.868Z,69.53
2022-12-18T18:14:56.873Z,69.39
2022-12-18T18:17:25.551Z,68.32
2022-12-18T18:19:54.549Z,67.99
2022-12-18T18:22:25.002Z,68.03
2022-12-18T18:24:53.950Z,68.00
2022-12-18T18:27:22.635Z,68.20
2022-12-18T18:29:51.840Z,69.36
2022-12-18T18:32:21.669Z,69.49
2022-12-18T18:34:51.591Z,70.24
2022-12-18T18:37:20.575Z,68.65
2022-12-18T18:39:49.262Z,66.65
2022-12-18T18:42:17.743Z,66.02
2022-12-18T18:44:49.065Z,65.62
2022-12-18T18:47:17.975Z,65.35
2022-12-18T18:49:46.654Z,65.13
2022-12-18T18:52:15.617Z,65.00
2022-12-18T18:55:10.763Z,64.18
2022-12-18T18:57:34.215Z,64.19
2022-12-18T19:00:03.437Z,64.73
2022-12-18T19:02:32.468Z,65.50
2022-12-18T19:05:02.439Z,65.99
2022-12-18T19:07:31.937Z,66.35
2022-12-18T19:10:05.200Z,67.26
2022-12-18T19:12:53.796Z,67.89
2022-12-18T19:15:24.029Z,68.14
2022-12-18T19:17:54.029Z,71.34
2022-12-18T19:20:23.215Z,72.17
2022-12-18T19:22:55.485Z,66.12
2022-12-18T19:25:40.229Z,64.12
2022-12-18T19:28:21.603Z,63.98
2022-12-18T19:30:56.351Z,60.82
2022-12-18T19:33:43.120Z,60.08
2022-12-18T19:36:14.954Z,58.81
2022-12-18T19:38:45.250Z,56.79
2022-12-18T19:41:15.987Z,55.79
2022-12-18T19:43:47.292Z,55.49
2022-12-18T19:46:20.567Z,55.62
2022-12-18T19:48:51.159Z,55.64
2022-12-18T19:51:28.618Z,58.61
2022-12-18T19:54:01.178Z,59.07
2022-12-18T19:56:34.130Z,56.96
2022-12-18T19:59:05.882Z,58.13
2022-12-18T20:01:37.580Z,56.62
2022-12-18T20:04:08.554Z,55.31
2022-12-18T20:06:54.845Z,54.01
2022-12-18T20:09:26.255Z,54.71
2022-12-18T20:11:56.780Z,53.68
2022-12-18T20:14:28.596Z,54.12
2022-12-18T20:17:00.425Z,55.79
2022-12-18T20:19:32.611Z,58.09
2022-12-18T20:22:04.410Z,55.63
2022-12-18T20:24:35.985Z,53.56
2022-12-18T20:27:14.034Z,55.26
2022-12-18T20:29:50.645Z,53.51
2022-12-18T20:32:21.666Z,51.47
2022-12-18T20:34:53.467Z,52.31
2022-12-18T20:37:25.655Z,55.58
2022-12-18T20:39:57.977Z,52.59
2022-12-18T20:42:28.912Z,51.12
2022-12-18T20:44:59.747Z,51.74
2022-12-18T20:47:31.614Z,54.83
2022-12-18T20:50:04.899Z,58.73
2022-12-18T20:52:35.867Z,55.84
2022-12-18T20:55:08.156Z,53.36
2022-12-18T20:57:39.426Z,52.33
2022-12-18T21:00:10.051Z,51.83
2022-12-18T21:02:40.519Z,50.65
2022-12-18T21:05:10.190Z,50.34
2022-12-18T21:07:40.183Z,50.22
2022-12-18T21:10:10.764Z,49.57
2022-12-18T21:13:01.711Z,51.05
2022-12-18T21:15:34.248Z,50.94
2022-12-18T21:18:03.851Z,48.76
2022-12-18T21:20:33.724Z,49.23
2022-12-18T21:23:16.008Z,49.11
2022-12-18T21:25:47.577Z,49.23
2022-12-18T21:28:23.303Z,49.35
2022-12-18T21:30:52.724Z,47.77
2022-12-18T21:33:21.423Z,47.47
2022-12-18T21:35:50.274Z,47.27
2022-12-18T21:38:19.685Z,47.95
2022-12-18T21:40:49.393Z,45.98
2022-12-18T21:43:37.564Z,45.99
2022-12-18T21:46:07.794Z,47.31
2022-12-18T21:48:40.903Z,46.85
2022-12-18T21:51:10.777Z,45.11
2022-12-18T21:53:39.521Z,45.01
2022-12-18T21:56:08.420Z,45.84
2022-12-18T21:58:37.882Z,46.64
2022-12-18T22:01:06.752Z,45.77
2022-12-18T22:03:36.532Z,46.98
2022-12-18T22:06:09.544Z,45.68
2022-12-18T22:08:42.595Z,47.44
2022-12-18T22:11:17.714Z,45.74
2022-12-18T22:13:50.760Z,43.73
2022-12-18T22:16:20.586Z,43.81
2022-12-18T22:18:51.049Z,46.38
2022-12-18T22:21:35.533Z,47.86
2022-12-18T22:24:10.681Z,46.54
2022-12-18T22:26:40.393Z,45.86
2022-12-18T22:29:47.972Z,45.58
2022-12-18T22:32:21.434Z,44.67
2022-12-18T22:35:06.926Z,43.38
2022-12-18T22:37:38.488Z,43.07
2022-12-18T22:40:07.791Z,44.16
2022-12-18T22:42:38.722Z,43.18
2022-12-18T22:45:09.270Z,42.92
2022-12-18T22:47:37.631Z,41.61
2022-12-18T22:50:07.648Z,41.10
2022-12-18T22:52:36.545Z,42.55
2022-12-18T22:55:07.668Z,43.48
2022-12-18T22:57:36.672Z,42.03
2022-12-18T23:00:09.730Z,41.17
2022-12-18T23:02:39.207Z,41.83
2022-12-18T23:05:09.403Z,42.30
2022-12-18T23:07:38.270Z,42.55
2022-12-18T23:10:07.985Z,44.84
2022-12-18T23:12:38.538Z,45.62
2022-12-18T23:15:08.434Z,44.00
2022-12-18T23:17:36.920Z,42.71
2022-12-18T23:20:06.737Z,43.71
2022-12-18T23:22:35.027Z,45.62
2022-12-18T23:25:03.597Z,44.78
2022-12-18T23:27:35.254Z,43.79
2022-12-18T23:30:04.850Z,44.48
2022-12-18T23:32:38.890Z,44.24
2022-12-18T23:35:07.865Z,43.67
2022-12-18T23:38:00.151Z,42.56
2022-12-18T23:40:27.870Z,43.85
2022-12-18T23:42:56.961Z,43.44
2022-12-18T23:45:25.075Z,40.88
2022-12-18T23:47:53.611Z,40.81
2022-12-18T23:50:23.760Z,40.66
2022-12-18T23:53:04.678Z,39.60
2022-12-18T23:55:40.870Z,40.20
2022-12-18T23:58:22.159Z,41.66
